Time;durP1;ratioP1;P1;durP2;ratioP2;P2;SDS_P1;SDS_P2;PMS_P1;PMS_P2;Temp;Humidity;BMP_temperature;BMP_pressure;BME280_temperature;BME280_humidity;BME280_pressure;Samples;Min_cycle;Max_cycle;Signal;HPM_P1;HPM_P2
2023/10/24 00:01:00;;;;;;;4.17;3.50;;;11.80;52.80;;;;;;5052600;28;20193;-69
2023/10/24 00:03:26;;;;;;;4.20;3.80;;;11.80;51.90;;;;;;5050500;28;20468;-69
2023/10/24 00:05:52;;;;;;;4.73;4.20;;;11.90;51.70;;;;;;5051947;28;20567;-69
2023/10/24 00:08:18;;;;;;;6.77;4.20;;;11.80;51.00;;;;;;5051406;28;20262;-69
2023/10/24 00:10:43;;;;;;;4.30;3.50;;;11.70;52.10;;;;;;5051415;28;20904;-69
2023/10/24 00:13:09;;;;;;;4.10;3.70;;;11.70;53.50;;;;;;5051450;28;20180;-69
2023/10/24 00:15:34;;;;;;;5.33;3.20;;;11.70;52.80;;;;;;5052024;28;20205;-69
2023/10/24 00:18:00;;;;;;;5.50;3.63;;;11.70;52.90;;;;;;5051090;28;20258;-69
2023/10/24 00:20:25;;;;;;;4.73;3.60;;;11.60;52.80;;;;;;5051199;28;20210;-69
2023/10/24 00:22:51;;;;;;;5.40;4.40;;;11.60;53.20;;;;;;5050108;28;20234;-69
2023/10/24 00:25:16;;;;;;;5.60;3.77;;;11.50;54.70;;;;;;5051285;28;20216;-69
2023/10/24 00:27:42;;;;;;;4.87;3.40;;;11.40;55.80;;;;;;5050993;28;20179;-69
2023/10/24 00:30:08;;;;;;;7.20;5.13;;;11.40;57.50;;;;;;5050225;28;20684;-69
2023/10/24 00:32:33;;;;;;;5.50;3.63;;;11.50;57.60;;;;;;5051292;28;20177;-69
2023/10/24 00:34:59;;;;;;;5.93;4.40;;;11.50;57.50;;;;;;5051255;28;20493;-69
2023/10/24 00:37:24;;;;;;;5.83;4.73;;;11.50;56.90;;;;;;5051252;28;20178;-69
2023/10/24 00:39:50;;;;;;;5.50;4.13;;;11.50;57.30;;;;;;5049923;28;20202;-70
2023/10/24 00:42:15;;;;;;;6.77;4.60;;;11.50;57.50;;;;;;5051203;28;20258;-70
2023/10/24 00:44:41;;;;;;;6.63;4.40;;;11.60;57.70;;;;;;5051062;28;20196;-70
2023/10/24 00:47:07;;;;;;;7.10;4.70;;;11.50;57.40;;;;;;5051212;28;20179;-69
2023/10/24 00:49:32;;;;;;;5.80;4.40;;;11.50;57.60;;;;;;5050926;28;20254;-69
2023/10/24 00:51:58;;;;;;;5.60;4.63;;;11.40;59.20;;;;;;5051116;28;20205;-66
2023/10/24 00:54:26;;;;;;;7.00;5.40;;;11.50;59.10;;;;;;5049758;28;20206;-70
2023/10/24 00:56:52;;;;;;;6.37;5.50;;;11.40;58.70;;;;;;5051030;28;20442;-67
2023/10/24 00:59:21;;;;;;;8.63;6.00;;;11.30;60.30;;;;;;5050810;28;20451;-69
2023/10/24 01:01:47;;;;;;;7.50;5.70;;;11.40;60.90;;;;;;5053243;28;20196;-70
2023/10/24 01:04:12;;;;;;;5.87;5.27;;;11.40;61.40;;;;;;5054656;28;20948;-67
2023/10/24 01:06:38;;;;;;;9.90;6.00;;;11.40;62.40;;;;;;5054610;28;20401;-69
2023/10/24 01:09:05;;;;;;;8.07;5.93;;;11.30;62.40;;;;;;5054495;28;20202;-67
2023/10/24 01:11:32;;;;;;;10.63;5.80;;;11.30;64.40;;;;;;5053103;28;20175;-70
2023/10/24 01:14:01;;;;;;;9.20;4.77;;;11.30;63.10;;;;;;5054525;28;20918;-69
2023/10/24 01:16:27;;;;;;;5.30;4.80;;;11.30;62.20;;;;;;5054416;28;20416;-69
2023/10/24 01:18:53;;;;;;;5.90;5.30;;;11.30;64.00;;;;;;5054436;28;20414;-70
2023/10/24 01:21:18;;;;;;;8.77;6.30;;;11.20;63.50;;;;;;5054171;28;20543;-69
2023/10/24 01:23:44;;;;;;;5.40;4.73;;;11.30;63.40;;;;;;5054318;28;20243;-69
2023/10/24 01:26:11;;;;;;;6.60;5.70;;;11.30;63.00;;;;;;5054216;28;20175;-67
2023/10/24 01:28:37;;;;;;;6.90;5.50;;;11.30;62.40;;;;;;5054064;28;20199;-67
2023/10/24 01:31:03;;;;;;;6.80;4.97;;;11.40;61.80;;;;;;5054021;28;20425;-67
2023/10/24 01:33:29;;;;;;;5.60;5.00;;;11.30;61.90;;;;;;5054146;28;20227;-67
2023/10/24 01:35:55;;;;;;;7.83;4.60;;;11.30;62.40;;;;;;5054014;28;20178;-70
2023/10/24 01:38:20;;;;;;;6.40;4.70;;;11.30;62.30;;;;;;5052480;28;20778;-69
2023/10/24 01:40:46;;;;;;;8.37;5.20;;;11.20;63.30;;;;;;5053800;28;20210;-69
2023/10/24 01:43:11;;;;;;;8.70;5.83;;;11.10;64.60;;;;;;5053871;28;20178;-69
2023/10/24 01:45:36;;;;;;;5.57;5.07;;;11.10;65.80;;;;;;5053877;28;20593;-69
2023/10/24 01:48:02;;;;;;;8.10;5.77;;;11.10;66.70;;;;;;5053634;28;20171;-70
2023/10/24 01:50:28;;;;;;;8.13;4.67;;;11.10;66.00;;;;;;5053915;28;20241;-69
2023/10/24 01:52:54;;;;;;;6.67;5.53;;;11.10;66.90;;;;;;5053786;28;20171;-69
2023/10/24 01:55:19;;;;;;;5.30;4.80;;;11.20;66.00;;;;;;5053676;28;20174;-69
2023/10/24 01:57:45;;;;;;;4.73;4.33;;;11.20;65.50;;;;;;5053471;28;20458;-69
2023/10/24 02:00:11;;;;;;;6.47;5.23;;;11.30;65.40;;;;;;5053920;28;20281;-69
2023/10/24 02:02:36;;;;;;;7.63;5.97;;;11.30;63.40;;;;;;5053669;28;20249;-69
2023/10/24 02:05:02;;;;;;;6.50;5.40;;;11.20;63.90;;;;;;5053410;28;20475;-69
2023/10/24 02:07:27;;;;;;;6.13;5.37;;;11.30;63.70;;;;;;5053481;28;20236;-69
2023/10/24 02:09:54;;;;;;;7.40;5.20;;;11.30;63.40;;;;;;5053119;28;20195;-69
2023/10/24 02:12:19;;;;;;;5.30;3.90;;;11.30;63.80;;;;;;5053323;28;20221;-69
2023/10/24 02:14:45;;;;;;;9.07;5.73;;;11.20;62.70;;;;;;5053243;28;20413;-69
2023/10/24 02:17:11;;;;;;;8.20;6.07;;;11.30;64.00;;;;;;5053364;28;20182;-69
2023/10/24 02:19:36;;;;;;;6.50;5.07;;;11.30;63.30;;;;;;5052418;28;20449;-69
2023/10/24 02:22:02;;;;;;;6.50;4.50;;;11.30;63.10;;;;;;5056940;28;20180;-69
2023/10/24 02:24:27;;;;;;;7.00;4.47;;;11.30;63.10;;;;;;5056897;28;20598;-70
2023/10/24 02:26:53;;;;;;;6.07;5.27;;;11.40;62.40;;;;;;5057431;28;20536;-69
2023/10/24 02:29:18;;;;;;;5.97;4.60;;;11.30;61.30;;;;;;5056657;28;20185;-69
2023/10/24 02:31:44;;;;;;;9.73;4.53;;;11.30;61.70;;;;;;5057000;28;20176;-67
2023/10/24 02:34:09;;;;;;;6.23;4.40;;;11.30;62.40;;;;;;5056105;28;20541;-70
2023/10/24 02:36:35;;;;;;;5.83;4.43;;;11.30;62.30;;;;;;5057389;28;20662;-70
2023/10/24 02:39:00;;;;;;;9.17;4.23;;;11.40;62.00;;;;;;5057108;28;20186;-68
2023/10/24 02:41:26;;;;;;;6.70;4.50;;;11.30;61.70;;;;;;5056856;28;20747;-68
2023/10/24 02:43:51;;;;;;;4.57;4.17;;;11.30;62.40;;;;;;5057014;28;20584;-68
2023/10/24 02:46:17;;;;;;;6.70;3.60;;;11.40;62.00;;;;;;5057273;28;20191;-70
2023/10/24 02:48:42;;;;;;;4.67;4.10;;;11.30;62.30;;;;;;5056704;28;20646;-67
2023/10/24 02:51:08;;;;;;;5.50;3.20;;;11.40;62.40;;;;;;5057261;28;20286;-68
2023/10/24 02:53:33;;;;;;;4.37;3.50;;;11.30;62.70;;;;;;5057330;28;20250;-68
2023/10/24 02:56:02;;;;;;;5.33;3.77;;;11.40;60.80;;;;;;5057287;28;20240;-68
2023/10/24 02:58:28;;;;;;;5.93;3.17;;;11.40;57.80;;;;;;5057040;28;20556;-69
2023/10/24 03:00:54;;;;;;;7.37;3.90;;;11.50;57.50;;;;;;5055975;28;20498;-70
2023/10/24 03:03:19;;;;;;;8.50;3.60;;;11.50;56.40;;;;;;5057249;28;20171;-69
2023/10/24 03:05:45;;;;;;;7.47;4.03;;;11.50;57.10;;;;;;5057990;28;20670;-69
2023/10/24 03:08:10;;;;;;;4.93;3.00;;;11.50;57.70;;;;;;5059110;28;20254;-69
2023/10/24 03:10:40;;;;;;;7.53;3.50;;;11.50;57.50;;;;;;5059608;28;20199;-69
2023/10/24 03:13:05;;;;;;;4.70;3.77;;;11.50;57.70;;;;;;5057320;28;20189;-69
2023/10/24 03:15:32;;;;;;;4.10;2.50;;;11.60;57.70;;;;;;5058660;28;20905;-69
2023/10/24 03:17:58;;;;;;;6.33;3.10;;;11.60;56.20;;;;;;5058548;28;20187;-69
2023/10/24 03:20:25;;;;;;;7.47;3.67;;;11.50;56.80;;;;;;5058401;28;20457;-69
2023/10/24 03:22:51;;;;;;;5.57;3.43;;;11.60;56.00;;;;;;5058278;28;20554;-69
2023/10/24 03:25:17;;;;;;;3.30;2.43;;;11.60;56.20;;;;;;5057284;28;20463;-69
2023/10/24 03:27:42;;;;;;;4.13;2.90;;;11.50;56.90;;;;;;5057913;28;20172;-69
2023/10/24 03:30:08;;;;;;;5.37;3.23;;;11.50;56.60;;;;;;5057342;28;20433;-69
2023/10/24 03:32:33;;;;;;;3.90;2.90;;;11.60;55.80;;;;;;5056526;28;20182;-69
2023/10/24 03:34:59;;;;;;;6.40;2.90;;;11.70;53.40;;;;;;5056364;28;20190;-68
2023/10/24 03:37:24;;;;;;;4.20;2.83;;;11.60;52.80;;;;;;5057765;28;20183;-69
2023/10/24 03:39:50;;;;;;;8.93;3.57;;;11.60;53.90;;;;;;5057605;28;20213;-69
2023/10/24 03:42:16;;;;;;;4.77;3.00;;;11.60;52.80;;;;;;5057824;28;20783;-68
2023/10/24 03:44:42;;;;;;;5.07;3.17;;;11.70;52.90;;;;;;5057462;28;20256;-69
2023/10/24 03:47:07;;;;;;;5.40;2.73;;;11.70;52.90;;;;;;5057690;28;20183;-69
2023/10/24 03:49:33;;;;;;;3.30;2.73;;;11.70;52.80;;;;;;5057332;28;20468;-70
2023/10/24 03:51:59;;;;;;;5.60;2.80;;;11.70;51.20;;;;;;5057307;28;20186;-69
2023/10/24 03:54:25;;;;;;;4.40;2.70;;;11.70;51.20;;;;;;5056823;28;20525;-69
2023/10/24 03:56:50;;;;;;;4.83;2.83;;;11.70;51.10;;;;;;5058031;28;20503;-69
2023/10/24 03:59:16;;;;;;;6.43;2.63;;;11.70;50.10;;;;;;5056629;28;20276;-68
2023/10/24 04:01:41;;;;;;;7.87;3.20;;;11.80;49.50;;;;;;5057761;28;20582;-69
2023/10/24 04:04:07;;;;;;;3.20;2.27;;;11.80;49.70;;;;;;5056509;28;20203;-69
2023/10/24 04:06:35;;;;;;;4.17;2.70;;;11.80;49.10;;;;;;5056301;28;20167;-69
2023/10/24 04:09:04;;;;;;;8.17;2.97;;;11.80;50.30;;;;;;5056434;28;20253;-69
2023/10/24 04:11:31;;;;;;;3.57;2.17;;;11.90;49.40;;;;;;5056649;28;20495;-69
2023/10/24 04:13:58;;;;;;;5.87;2.43;;;11.90;49.50;;;;;;5056446;28;20411;-69
2023/10/24 04:16:23;;;;;;;5.17;2.73;;;11.90;49.80;;;;;;5056517;28;20482;-69
2023/10/24 04:18:49;;;;;;;5.30;2.97;;;11.90;49.70;;;;;;5056820;28;20502;-69
2023/10/24 04:21:15;;;;;;;5.37;2.90;;;11.90;50.10;;;;;;5056491;28;20223;-68
2023/10/24 04:23:41;;;;;;;3.63;2.53;;;11.90;50.70;;;;;;5057129;28;20206;-67
2023/10/24 04:26:06;;;;;;;7.07;3.10;;;11.90;49.70;;;;;;5057082;28;20419;-67
2023/10/24 04:28:32;;;;;;;7.20;2.67;;;11.90;50.00;;;;;;5056586;28;20610;-68
2023/10/24 04:30:58;;;;;;;8.40;2.70;;;11.90;49.20;;;;;;5057136;28;20298;-68
2023/10/24 04:33:23;;;;;;;5.50;2.70;;;11.90;49.20;;;;;;5057888;28;20634;-67
2023/10/24 04:35:51;;;;;;;4.97;2.90;;;12.00;49.20;;;;;;5059305;28;20182;-68
2023/10/24 04:38:17;;;;;;;5.50;3.40;;;12.10;48.70;;;;;;5060418;28;20565;-68
2023/10/24 04:40:43;;;;;;;4.13;2.90;;;12.10;48.30;;;;;;5060704;28;20448;-67
2023/10/24 04:43:09;;;;;;;2.83;2.13;;;12.10;48.30;;;;;;5061301;28;20413;-67
2023/10/24 04:45:38;;;;;;;3.43;2.57;;;12.10;47.30;;;;;;5060507;28;20682;-67
2023/10/24 04:48:04;;;;;;;6.20;2.97;;;12.10;47.20;;;;;;5060845;28;20921;-68
2023/10/24 04:50:30;;;;;;;6.23;2.80;;;12.10;47.10;;;;;;5061039;28;20446;-67
2023/10/24 04:52:56;;;;;;;6.40;3.47;;;12.10;47.70;;;;;;5059696;28;20703;-68
2023/10/24 04:55:22;;;;;;;8.87;2.47;;;12.10;47.20;;;;;;5061119;28;20900;-67
2023/10/24 04:57:48;;;;;;;4.57;3.63;;;12.10;47.80;;;;;;5060706;28;20201;-67
2023/10/24 05:00:14;;;;;;;4.13;3.57;;;12.20;47.60;;;;;;5060798;28;20447;-67
2023/10/24 05:02:41;;;;;;;3.50;3.20;;;12.30;46.90;;;;;;5061025;28;20435;-68
2023/10/24 05:05:07;;;;;;;4.83;3.93;;;12.30;46.80;;;;;;5060725;28;20473;-67
2023/10/24 05:07:33;;;;;;;5.33;4.30;;;12.30;46.30;;;;;;5060068;28;20433;-67
2023/10/24 05:09:59;;;;;;;4.17;2.80;;;12.30;46.30;;;;;;5060164;28;20523;-67
2023/10/24 05:12:24;;;;;;;5.40;3.37;;;12.20;46.10;;;;;;5061918;28;20448;-70
2023/10/24 05:14:50;;;;;;;5.80;4.07;;;12.30;47.10;;;;;;5062672;28;20189;-70
2023/10/24 05:17:16;;;;;;;4.03;3.20;;;12.20;47.70;;;;;;5060789;28;20186;-70
2023/10/24 05:19:42;;;;;;;4.90;2.90;;;12.30;48.90;;;;;;5060492;28;20213;-67
2023/10/24 05:22:09;;;;;;;5.00;3.47;;;12.30;47.90;;;;;;5061192;28;20184;-68
2023/10/24 05:24:49;;;;;;;4.77;2.87;;;12.30;45.80;;;;;;5038359;28;20855;-67
2023/10/24 05:27:15;;;;;;;4.40;3.37;;;12.40;45.00;;;;;;5061699;28;20421;-68
2023/10/24 05:29:42;;;;;;;4.47;3.20;;;12.30;45.00;;;;;;5059571;28;20888;-68
2023/10/24 05:32:08;;;;;;;6.60;3.83;;;12.40;44.80;;;;;;5061005;28;20552;-68
2023/10/24 05:34:33;;;;;;;6.27;3.50;;;12.30;47.20;;;;;;5061172;28;20411;-68
2023/10/24 05:36:59;;;;;;;5.77;4.67;;;12.40;47.40;;;;;;5060716;28;20605;-69
2023/10/24 05:39:26;;;;;;;7.67;3.10;;;12.40;48.20;;;;;;5060940;28;20183;-68
2023/10/24 05:41:52;;;;;;;4.87;3.30;;;12.40;47.50;;;;;;5060398;28;20175;-69
2023/10/24 05:44:17;;;;;;;5.20;2.90;;;12.40;46.20;;;;;;5060149;28;20471;-68
2023/10/24 05:46:43;;;;;;;5.13;3.53;;;12.40;46.60;;;;;;5059558;28;20175;-69
2023/10/24 05:49:08;;;;;;;5.90;3.63;;;12.40;46.70;;;;;;5060740;28;20172;-68
2023/10/24 05:51:34;;;;;;;4.77;3.60;;;12.50;47.10;;;;;;5059145;28;20667;-68
2023/10/24 05:54:00;;;;;;;6.13;4.30;;;12.50;46.40;;;;;;5058763;28;20183;-68
2023/10/24 05:56:26;;;;;;;4.90;4.30;;;12.50;46.00;;;;;;5059571;28;20195;-69
2023/10/24 05:58:52;;;;;;;6.20;4.10;;;12.60;45.50;;;;;;5059496;28;20183;-69
2023/10/24 06:01:17;;;;;;;5.70;4.47;;;12.60;45.50;;;;;;5060429;28;20470;-69
2023/10/24 06:03:43;;;;;;;6.00;4.43;;;12.70;44.90;;;;;;5059656;28;20484;-69
2023/10/24 06:06:08;;;;;;;5.27;4.60;;;12.70;44.60;;;;;;5060031;28;20184;-69
2023/10/24 06:08:35;;;;;;;6.20;4.50;;;12.70;43.20;;;;;;5057284;28;20178;-69
2023/10/24 06:11:02;;;;;;;6.43;4.23;;;12.70;40.80;;;;;;5057818;28;20287;-68
2023/10/24 06:13:29;;;;;;;7.33;5.07;;;12.80;40.50;;;;;;5053871;28;20426;-68
2023/10/24 06:15:56;;;;;;;6.70;5.17;;;12.80;39.90;;;;;;5053707;28;20413;-68
2023/10/24 06:18:22;;;;;;;5.83;3.90;;;12.80;39.90;;;;;;5054050;28;20500;-69
2023/10/24 06:20:47;;;;;;;6.30;5.00;;;12.90;39.70;;;;;;5053497;28;20506;-69
2023/10/24 06:23:13;;;;;;;7.40;4.87;;;12.90;39.50;;;;;;5053350;28;20660;-68
2023/10/24 06:25:43;;;;;;;5.73;4.10;;;12.90;39.20;;;;;;5053400;28;20211;-68
2023/10/24 06:28:09;;;;;;;5.17;3.47;;;12.90;39.80;;;;;;5053128;28;20415;-67
2023/10/24 06:30:35;;;;;;;5.97;4.60;;;13.00;39.40;;;;;;5053161;28;20429;-68
2023/10/24 06:33:02;;;;;;;6.70;6.00;;;13.00;39.30;;;;;;5053176;28;20497;-68
2023/10/24 06:35:27;;;;;;;6.40;4.47;;;13.00;39.80;;;;;;5052213;28;20934;-68
2023/10/24 06:37:53;;;;;;;6.93;4.70;;;13.00;39.70;;;;;;5053008;28;20479;-68
2023/10/24 06:40:19;;;;;;;4.67;4.27;;;13.00;40.40;;;;;;5053171;28;20195;-68
2023/10/24 06:42:45;;;;;;;7.53;5.20;;;13.00;39.90;;;;;;5053020;28;20428;-68
2023/10/24 06:45:11;;;;;;;6.90;5.10;;;13.00;40.30;;;;;;5052781;28;20490;-68
2023/10/24 06:47:37;;;;;;;7.80;5.17;;;13.00;39.30;;;;;;5052835;28;20191;-68
2023/10/24 06:50:03;;;;;;;8.73;4.87;;;13.00;39.20;;;;;;5052674;28;20296;-68
2023/10/24 06:52:30;;;;;;;5.67;5.10;;;13.10;37.90;;;;;;5052728;28;20465;-68
2023/10/24 06:54:56;;;;;;;4.83;4.00;;;13.10;37.30;;;;;;5052978;28;20435;-68
2023/10/24 06:57:22;;;;;;;6.30;4.30;;;13.10;37.40;;;;;;5052484;28;20416;-68
2023/10/24 06:59:48;;;;;;;9.10;5.60;;;13.20;36.60;;;;;;5052514;28;20444;-68
2023/10/24 07:02:13;;;;;;;5.70;4.50;;;13.20;37.00;;;;;;5052618;28;20186;-69
2023/10/24 07:04:39;;;;;;;6.47;4.57;;;13.30;36.70;;;;;;5052554;28;20212;-68
2023/10/24 07:07:04;;;;;;;5.10;4.10;;;13.30;36.00;;;;;;5052728;28;20370;-68
2023/10/24 07:09:30;;;;;;;6.50;4.57;;;13.30;37.00;;;;;;5050984;28;20263;-68
2023/10/24 07:11:55;;;;;;;6.60;4.57;;;13.30;40.40;;;;;;5052514;28;20186;-68
2023/10/24 07:14:23;;;;;;;5.83;4.47;;;13.30;40.70;;;;;;5052487;28;20654;-68
2023/10/24 07:16:50;;;;;;;6.40;4.57;;;13.40;40.50;;;;;;5052403;28;20170;-68
2023/10/24 07:19:15;;;;;;;5.93;4.70;;;13.50;40.30;;;;;;5051871;28;20782;-68
2023/10/24 07:21:41;;;;;;;6.60;4.20;;;13.50;40.30;;;;;;5052416;28;20417;-70
2023/10/24 07:24:07;;;;;;;7.77;5.20;;;13.50;40.20;;;;;;5051279;28;20216;-68
2023/10/24 07:26:32;;;;;;;6.30;5.10;;;13.50;39.80;;;;;;5052405;28;20178;-68
2023/10/24 07:28:58;;;;;;;7.67;5.77;;;13.40;41.20;;;;;;5052175;28;20208;-68
2023/10/24 07:31:23;;;;;;;4.77;3.97;;;13.40;40.60;;;;;;5052093;28;20198;-68
2023/10/24 07:33:49;;;;;;;10.33;5.97;;;13.30;40.60;;;;;;5052128;28;20555;-68
2023/10/24 07:36:15;;;;;;;8.53;5.30;;;13.20;44.50;;;;;;5052022;28;20261;-68
2023/10/24 07:38:41;;;;;;;10.33;5.70;;;13.10;44.70;;;;;;5051835;28;20182;-68
2023/10/24 07:41:06;;;;;;;6.53;5.47;;;13.00;45.80;;;;;;5050595;28;20432;-68
2023/10/24 07:43:32;;;;;;;8.10;5.70;;;12.80;47.50;;;;;;5051917;28;20181;-68
2023/10/24 07:45:58;;;;;;;7.43;5.57;;;12.70;48.70;;;;;;5052324;28;20175;-68
2023/10/24 07:48:24;;;;;;;6.20;5.20;;;12.60;50.90;;;;;;5051911;28;20188;-68
2023/10/24 07:50:55;;;;;;;8.20;6.33;;;12.60;51.60;;;;;;5052078;28;20194;-69
2023/10/24 07:53:22;;;;;;;9.63;6.47;;;12.50;52.40;;;;;;5050759;28;20412;-68
2023/10/24 07:55:47;;;;;;;10.43;6.60;;;12.50;53.60;;;;;;5051668;28;20775;-68
2023/10/24 07:58:16;;;;;;;7.30;5.63;;;12.40;53.50;;;;;;5051465;28;20413;-68
2023/10/24 08:00:42;;;;;;;6.77;5.67;;;12.30;53.40;;;;;;5050258;28;20477;-67
2023/10/24 08:03:08;;;;;;;7.00;5.83;;;12.30;55.00;;;;;;5051664;28;20522;-68
2023/10/24 08:05:33;;;;;;;6.67;5.27;;;12.30;53.40;;;;;;5051624;28;20503;-68
2023/10/24 08:07:59;;;;;;;6.23;5.13;;;12.40;53.50;;;;;;5051479;28;20257;-68
2023/10/24 08:10:24;;;;;;;8.00;6.47;;;12.40;53.30;;;;;;5050990;28;20194;-68
2023/10/24 08:12:50;;;;;;;8.00;6.00;;;12.50;53.20;;;;;;5051448;28;20179;-68
2023/10/24 08:15:15;;;;;;;7.30;5.23;;;12.50;52.00;;;;;;5051554;28;20606;-68
2023/10/24 08:17:41;;;;;;;8.53;5.50;;;12.60;51.30;;;;;;5051301;28;20175;-68
2023/10/24 08:20:07;;;;;;;7.17;5.00;;;12.60;51.10;;;;;;5122207;22;20544;-70
2023/10/24 08:22:33;;;;;;;6.80;5.37;;;12.70;50.80;;;;;;5035260;28;20668;-71
2023/10/24 08:24:59;;;;;;;5.90;5.30;;;12.60;50.90;;;;;;5034480;28;20461;-70
2023/10/24 08:27:25;;;;;;;8.03;5.93;;;12.60;51.20;;;;;;5036054;28;20177;-69
2023/10/24 08:29:50;;;;;;;8.03;5.80;;;12.60;53.00;;;;;;5035478;28;20432;-67
2023/10/24 08:32:16;;;;;;;9.67;4.97;;;12.60;53.30;;;;;;5036505;28;20186;-70
2023/10/24 08:34:42;;;;;;;6.70;5.00;;;12.60;52.40;;;;;;5035012;28;20278;-70
2023/10/24 08:37:08;;;;;;;10.67;5.53;;;12.60;53.70;;;;;;5035331;28;20421;-71
2023/10/24 08:39:34;;;;;;;5.83;4.50;;;12.70;53.70;;;;;;5035208;28;20428;-71
2023/10/24 08:42:00;;;;;;;5.40;4.90;;;12.70;53.00;;;;;;5035746;28;20418;-70
2023/10/24 08:44:26;;;;;;;6.60;5.20;;;12.70;52.50;;;;;;5035817;28;20496;-70
2023/10/24 08:46:52;;;;;;;10.93;5.67;;;12.70;52.60;;;;;;5037353;28;20176;-70
2023/10/24 08:49:18;;;;;;;6.80;5.67;;;12.60;53.70;;;;;;5037124;28;20424;-70
2023/10/24 08:51:45;;;;;;;5.80;4.60;;;12.60;55.40;;;;;;5035217;28;20995;-70
2023/10/24 08:54:11;;;;;;;6.90;6.30;;;12.50;58.50;;;;;;5036639;28;21042;-70
2023/10/24 08:56:41;;;;;;;9.33;5.73;;;12.50;59.00;;;;;;5035136;28;20430;-70
2023/10/24 08:59:12;;;;;;;10.30;6.70;;;12.40;60.60;;;;;;5037359;28;20425;-69
2023/10/24 09:01:40;;;;;;;8.20;5.13;;;12.40;62.60;;;;;;5038441;28;20467;-70
2023/10/24 09:04:06;;;;;;;6.37;5.30;;;12.50;62.90;;;;;;5037807;28;20549;-70
2023/10/24 09:06:33;;;;;;;7.97;4.30;;;12.50;61.80;;;;;;5037538;28;20451;-71
2023/10/24 09:08:59;;;;;;;9.60;4.70;;;12.60;63.60;;;;;;5037727;28;20676;-70
2023/10/24 09:11:25;;;;;;;5.83;4.67;;;12.60;63.60;;;;;;5038103;28;20445;-69
2023/10/24 09:13:52;;;;;;;7.27;4.03;;;12.60;64.00;;;;;;5038673;28;20420;-70
2023/10/24 09:16:18;;;;;;;9.53;5.40;;;12.70;64.40;;;;;;5038869;28;20282;-69
2023/10/24 09:18:44;;;;;;;6.90;4.70;;;12.70;66.30;;;;;;5038016;28;20451;-70
2023/10/24 09:21:09;;;;;;;5.80;5.17;;;12.80;65.10;;;;;;5037168;28;20218;-69
2023/10/24 09:23:36;;;;;;;6.17;4.47;;;12.80;65.40;;;;;;5041894;28;20268;-70
2023/10/24 09:26:05;;;;;;;6.57;5.80;;;12.90;65.00;;;;;;5040422;28;20182;-69
2023/10/24 09:28:33;;;;;;;7.27;6.07;;;13.00;66.00;;;;;;5039626;28;20516;-69
2023/10/24 09:30:59;;;;;;;9.50;7.80;;;13.10;60.10;;;;;;5039314;28;20484;-69
2023/10/24 09:33:29;;;;;;;7.90;6.80;;;13.30;58.10;;;;;;5039626;28;20510;-70
2023/10/24 09:35:56;;;;;;;9.03;7.40;;;13.40;57.10;;;;;;5040072;28;20432;-70
2023/10/24 09:38:24;;;;;;;6.10;5.50;;;13.40;57.10;;;;;;5038964;28;20457;-69
2023/10/24 09:40:52;;;;;;;10.40;7.13;;;13.50;57.10;;;;;;5039534;28;20468;-70
2023/10/24 09:43:24;;;;;;;13.30;8.70;;;13.60;56.20;;;;;;5040558;28;20476;-71
2023/10/24 09:45:51;;;;;;;12.63;8.20;;;13.70;55.60;;;;;;5039235;28;20437;-69
2023/10/24 09:48:17;;;;;;;10.30;7.30;;;13.70;54.60;;;;;;5039181;28;20418;-70
2023/10/24 09:50:44;;;;;;;17.00;7.50;;;13.70;56.00;;;;;;5039399;28;20532;-69
2023/10/24 09:53:13;;;;;;;11.43;7.33;;;13.60;57.70;;;;;;5039069;28;20802;-70
2023/10/24 09:55:41;;;;;;;12.77;7.53;;;13.70;58.10;;;;;;5039976;28;20758;-69
2023/10/24 09:58:08;;;;;;;12.23;7.13;;;13.90;57.00;;;;;;5038139;28;20422;-69
2023/10/24 10:00:34;;;;;;;15.77;7.70;;;14.10;55.00;;;;;;5037461;28;20488;-70
2023/10/24 10:03:00;;;;;;;10.00;7.40;;;14.20;54.10;;;;;;5037736;28;20448;-70
2023/10/24 10:05:30;;;;;;;9.73;7.80;;;14.30;52.80;;;;;;5038320;28;20819;-70
2023/10/24 10:07:59;;;;;;;8.43;6.00;;;14.40;51.10;;;;;;5038944;28;20413;-69
2023/10/24 10:10:25;;;;;;;7.67;6.00;;;14.50;50.60;;;;;;5039032;28;20453;-69
2023/10/24 10:13:14;;;;;;;5.23;4.00;;;14.50;50.50;;;;;;5039533;28;20881;-69
2023/10/24 10:16:04;;;;;;;11.97;6.60;;;14.60;51.30;;;;;;5037908;28;20791;-70
2023/10/24 10:18:47;;;;;;;5.33;4.23;;;14.60;52.10;;;;;;5037120;28;20787;-70
2023/10/24 10:21:33;;;;;;;7.03;5.60;;;14.60;52.90;;;;;;5037348;28;20460;-70
2023/10/24 10:24:29;;;;;;;6.93;5.50;;;14.70;53.60;;;;;;5036936;28;20462;-69
2023/10/24 10:27:10;;;;;;;8.20;5.67;;;14.70;52.50;;;;;;5038509;28;20410;-69
2023/10/24 10:29:57;;;;;;;7.27;5.20;;;14.80;53.30;;;;;;5036167;28;20426;-69
2023/10/24 10:32:38;;;;;;;7.93;4.63;;;14.90;52.70;;;;;;5037174;28;20411;-69
2023/10/24 10:35:04;;;;;;;5.97;5.20;;;14.90;52.20;;;;;;5037102;28;20424;-69
2023/10/24 10:37:34;;;;;;;5.83;3.70;;;15.00;51.40;;;;;;5035742;28;20426;-69
2023/10/24 10:40:17;;;;;;;9.20;5.30;;;15.10;50.10;;;;;;5036483;28;20446;-69
2023/10/24 10:42:48;;;;;;;7.97;6.40;;;14.90;49.70;;;;;;5036208;28;20432;-69
2023/10/24 10:45:25;;;;;;;8.30;6.77;;;14.90;50.00;;;;;;5036328;28;20492;-69
2023/10/24 10:47:52;;;;;;;8.60;6.20;;;14.80;51.10;;;;;;5036264;28;20433;-70
2023/10/24 10:50:37;;;;;;;8.33;6.17;;;14.80;49.90;;;;;;5036192;28;20442;-70
2023/10/24 10:53:18;;;;;;;9.83;6.00;;;14.90;50.80;;;;;;5038391;28;20409;-69
2023/10/24 10:55:58;;;;;;;7.57;5.70;;;14.90;49.60;;;;;;5037556;28;20421;-70
2023/10/24 10:58:46;;;;;;;10.70;6.90;;;14.90;50.40;;;;;;5036683;28;20455;-69
2023/10/24 11:01:45;;;;;;;7.33;5.40;;;14.90;50.40;;;;;;5035619;28;20484;-69
2023/10/24 11:04:17;;;;;;;6.60;5.07;;;15.00;50.50;;;;;;5035160;28;20496;-70
2023/10/24 11:06:56;;;;;;;9.33;5.13;;;15.00;49.40;;;;;;5036655;28;20752;-70
2023/10/24 11:09:33;;;;;;;5.87;4.70;;;14.80;52.50;;;;;;5036838;28;20905;-70
2023/10/24 11:12:21;;;;;;;7.83;5.40;;;14.80;52.50;;;;;;5036781;28;20410;-70
2023/10/24 11:15:22;;;;;;;6.67;4.60;;;14.80;51.50;;;;;;5037137;28;20772;-70
2023/10/24 12:50:05;;;;;;;2.17;1.07;;;13.90;30.40;;;;;;5052705;28;20386;-70
2023/10/24 12:52:30;;;;;;;2.07;1.03;;;14.80;24.60;;;;;;5028628;28;20428;-70
2023/10/24 12:54:56;;;;;;;2.77;1.23;;;15.10;21.20;;;;;;5028697;28;20517;-70
2023/10/24 12:57:21;;;;;;;2.80;1.90;;;15.20;22.00;;;;;;5028649;28;20608;-70
2023/10/24 12:59:47;;;;;;;4.43;2.47;;;15.10;19.60;;;;;;5028179;28;20696;-70
2023/10/24 13:02:14;;;;;;;3.30;1.77;;;15.20;21.90;;;;;;5028773;28;20625;-70
2023/10/24 13:04:41;;;;;;;3.70;1.10;;;15.20;20.00;;;;;;5028452;28;20175;-70
2023/10/24 13:07:07;;;;;;;3.43;1.73;;;15.20;19.30;;;;;;5028366;28;20418;-70
2023/10/24 13:09:39;;;;;;;3.43;1.77;;;15.20;20.00;;;;;;5027858;28;20520;-70
2023/10/24 13:12:06;;;;;;;2.73;1.37;;;15.30;19.60;;;;;;5028393;28;20202;-70
2023/10/24 13:14:32;;;;;;;3.27;1.13;;;15.20;17.60;;;;;;5028355;28;20961;-70
2023/10/24 13:16:58;;;;;;;4.20;2.47;;;15.00;17.50;;;;;;5026699;28;20450;-70
2023/10/24 13:19:24;;;;;;;2.57;1.57;;;14.80;20.70;;;;;;5027822;28;20179;-70
2023/10/24 13:21:51;;;;;;;1.77;1.10;;;14.90;20.60;;;;;;5028072;28;20418;-70
2023/10/24 13:24:17;;;;;;;2.87;1.23;;;14.70;19.50;;;;;;5028138;28;20840;-70
2023/10/24 13:26:43;;;;;;;3.97;1.23;;;14.60;19.90;;;;;;5028102;28;20453;-70
2023/10/24 13:29:09;;;;;;;2.60;1.17;;;14.50;19.50;;;;;;5027603;28;20929;-70
2023/10/24 13:31:34;;;;;;;3.43;1.07;;;14.30;20.30;;;;;;5027844;28;20442;-70
2023/10/24 13:34:00;;;;;;;2.63;1.37;;;14.10;23.30;;;;;;5028439;28;20187;-70
2023/10/24 13:36:25;;;;;;;2.80;1.20;;;14.00;25.40;;;;;;5027668;28;20176;-70
2023/10/24 13:38:51;;;;;;;2.33;1.40;;;13.80;26.60;;;;;;5027331;28;20249;-70
2023/10/24 13:41:16;;;;;;;2.43;1.43;;;13.80;28.10;;;;;;5026538;28;20699;-70
2023/10/24 13:43:42;;;;;;;2.60;1.20;;;13.90;28.00;;;;;;5026386;28;20197;-70
2023/10/24 13:46:08;;;;;;;3.83;1.50;;;13.90;28.50;;;;;;5027813;28;20191;-70
2023/10/24 13:48:33;;;;;;;2.10;1.20;;;13.90;28.80;;;;;;5027841;28;20688;-68
2023/10/24 13:50:59;;;;;;;3.37;1.60;;;14.00;27.90;;;;;;5015100;28;20250;-70
2023/10/24 13:53:24;;;;;;;2.70;1.43;;;14.00;25.80;;;;;;5014698;28;20570;-70
2023/10/24 13:55:50;;;;;;;2.40;1.90;;;14.10;26.80;;;;;;5014834;28;20369;-69
2023/10/24 13:58:15;;;;;;;4.33;2.23;;;14.10;27.30;;;;;;5014475;28;20179;-70
2023/10/24 14:00:41;;;;;;;2.93;1.73;;;14.10;28.00;;;;;;5014076;28;20200;-70
2023/10/24 14:03:06;;;;;;;4.20;2.60;;;14.10;26.90;;;;;;5014179;28;20184;-69
2023/10/24 14:05:32;;;;;;;3.13;2.33;;;14.00;27.70;;;;;;5014162;28;20238;-69
2023/10/24 14:07:58;;;;;;;7.30;5.33;;;14.10;27.60;;;;;;5013918;28;20286;-70
2023/10/24 14:10:23;;;;;;;6.10;4.43;;;14.00;28.00;;;;;;5013910;28;20741;-70
2023/10/24 14:12:49;;;;;;;7.10;3.40;;;13.90;28.80;;;;;;5014058;28;20172;-69
2023/10/24 14:15:15;;;;;;;5.03;3.30;;;13.90;29.40;;;;;;5014031;28;20217;-70
2023/10/24 14:17:40;;;;;;;3.10;2.40;;;13.90;28.40;;;;;;5014107;28;20190;-69